Time;durP1;ratioP1;P1;durP2;ratioP2;P2;SDS_P1;SDS_P2;PMS_P1;PMS_P2;Temp;Humidity;BMP_temperature;BMP_pressure;BME280_temperature;BME280_humidity;BME280_pressure;Samples;Min_cycle;Max_cycle;Signal;HPM_P1;HPM_P2
2022/02/24 00:00:58;;;;;;;2.20;0.30;;;20.00;46.60;;;;;;5067999;28;20150;-52
2022/02/24 00:03:26;;;;;;;0.93;0.32;;;19.90;46.50;;;;;;5066747;28;20115;-53
2022/02/24 00:05:53;;;;;;;1.30;0.30;;;20.00;46.60;;;;;;5066458;28;20036;-49
2022/02/24 00:08:20;;;;;;;1.75;0.50;;;20.00;46.60;;;;;;5031649;28;20056;-52
2022/02/24 00:10:49;;;;;;;0.60;0.20;;;20.00;46.60;;;;;;5066605;28;20032;-50
2022/02/24 00:13:17;;;;;;;4.38;0.60;;;20.00;46.60;;;;;;5066444;28;20044;-51
2022/02/24 00:15:44;;;;;;;1.40;0.57;;;20.00;46.70;;;;;;5066461;28;20044;-50
2022/02/24 00:18:11;;;;;;;0.95;0.38;;;20.00;46.60;;;;;;5066329;28;20033;-52
2022/02/24 00:20:38;;;;;;;1.23;0.22;;;20.00;46.60;;;;;;5067023;28;20082;-53
2022/02/24 00:23:06;;;;;;;1.83;0.35;;;20.00;46.60;;;;;;5066237;28;20050;-52
2022/02/24 00:25:33;;;;;;;1.17;0.47;;;20.00;46.60;;;;;;5066214;28;20036;-52
2022/02/24 00:28:01;;;;;;;2.20;0.38;;;20.00;46.60;;;;;;5067778;28;20048;-55
2022/02/24 00:30:28;;;;;;;2.33;0.40;;;20.00;46.60;;;;;;5066814;28;20055;-53
2022/02/24 00:32:55;;;;;;;1.63;0.40;;;19.90;46.60;;;;;;5066013;28;20044;-52
2022/02/24 00:35:22;;;;;;;1.70;0.93;;;19.90;46.60;;;;;;5065832;28;20063;-48
2022/02/24 00:37:49;;;;;;;1.85;0.60;;;19.90;46.60;;;;;;5063784;28;20083;-52
2022/02/24 00:40:16;;;;;;;3.10;0.40;;;19.90;46.60;;;;;;5066135;28;20044;-51
2022/02/24 00:42:44;;;;;;;1.02;0.30;;;19.90;46.60;;;;;;5067241;28;20051;-48
2022/02/24 00:45:12;;;;;;;2.38;0.47;;;19.90;46.60;;;;;;5065836;28;20048;-48
2022/02/24 00:47:39;;;;;;;1.10;0.38;;;20.00;46.70;;;;;;5065362;28;20129;-50
2022/02/24 00:50:06;;;;;;;1.67;0.35;;;20.00;46.70;;;;;;5047142;28;20419;-51
2022/02/24 00:52:33;;;;;;;2.20;0.20;;;19.90;46.60;;;;;;5065481;28;20850;-54
2022/02/24 00:55:01;;;;;;;2.33;0.25;;;19.90;46.60;;;;;;5067474;28;20412;-51
2022/02/24 00:57:28;;;;;;;0.30;0.13;;;19.90;46.60;;;;;;5065557;28;20044;-51
2022/02/24 00:59:54;;;;;;;1.05;0.20;;;19.90;46.60;;;;;;5065263;28;20048;-50
2022/02/24 01:02:23;;;;;;;0.63;0.10;;;19.90;46.60;;;;;;5065062;28;20131;-51
2022/02/24 01:04:50;;;;;;;2.55;0.25;;;19.90;46.60;;;;;;5065889;28;20037;-49
2022/02/24 01:07:17;;;;;;;1.45;0.30;;;19.90;46.60;;;;;;5065781;28;20048;-54
2022/02/24 01:09:44;;;;;;;3.15;0.20;;;19.90;46.60;;;;;;5065136;28;20054;-52
2022/02/24 01:12:11;;;;;;;3.22;0.20;;;19.90;46.60;;;;;;5064871;28;20113;-51
2022/02/24 01:14:38;;;;;;;1.75;0.30;;;19.90;46.70;;;;;;5064812;28;20029;-52
2022/02/24 01:17:05;;;;;;;2.50;0.43;;;19.90;46.70;;;;;;5065631;28;20044;-54
2022/02/24 01:19:34;;;;;;;1.60;0.30;;;19.90;46.70;;;;;;5065837;28;20562;-51
2022/02/24 01:22:01;;;;;;;2.92;0.22;;;19.90;46.70;;;;;;5063680;28;20127;-49
2022/02/24 01:24:28;;;;;;;2.15;0.32;;;19.90;46.70;;;;;;5065893;28;20492;-48
2022/02/24 01:26:55;;;;;;;3.15;1.15;;;19.90;46.70;;;;;;5064940;28;20126;-49
2022/02/24 01:29:22;;;;;;;1.65;0.20;;;19.90;46.70;;;;;;5065266;28;20047;-49
2022/02/24 01:31:49;;;;;;;1.38;0.88;;;19.90;46.70;;;;;;5047797;28;20055;-48
2022/02/24 01:34:18;;;;;;;1.85;0.32;;;19.90;46.70;;;;;;5065958;28;20049;-54
2022/02/24 01:36:47;;;;;;;2.70;0.70;;;19.90;46.70;;;;;;5064965;28;20050;-54
2022/02/24 01:39:14;;;;;;;2.25;0.32;;;19.90;46.70;;;;;;5064586;28;20044;-53
2022/02/24 01:41:41;;;;;;;1.45;0.20;;;19.90;46.80;;;;;;5064614;28;20059;-52
2022/02/24 01:44:09;;;;;;;1.50;0.68;;;19.90;46.70;;;;;;5065495;28;20045;-48
2022/02/24 01:46:37;;;;;;;2.15;0.93;;;19.90;46.80;;;;;;5065715;28;20045;-53
2022/02/24 01:49:04;;;;;;;1.10;0.20;;;19.90;46.80;;;;;;5066470;28;20521;-51
2022/02/24 01:51:31;;;;;;;1.45;0.60;;;19.90;46.80;;;;;;5065516;28;20045;-55
2022/02/24 01:54:00;;;;;;;1.48;0.30;;;19.80;46.70;;;;;;5065004;28;20032;-52
2022/02/24 01:56:27;;;;;;;1.48;0.30;;;19.90;46.80;;;;;;5064845;28;20047;-52
2022/02/24 01:58:54;;;;;;;1.55;0.88;;;19.80;46.80;;;;;;5065369;28;20038;-52
2022/02/24 02:01:22;;;;;;;1.58;0.30;;;19.80;46.80;;;;;;5064565;28;20048;-52
2022/02/24 02:03:50;;;;;;;4.55;0.40;;;19.90;46.80;;;;;;5065926;28;20539;-54
2022/02/24 02:06:20;;;;;;;1.33;0.40;;;19.90;46.80;;;;;;5065192;28;20075;-54
2022/02/24 02:08:47;;;;;;;2.28;0.50;;;19.80;46.80;;;;;;5065208;28;20041;-53
2022/02/24 02:11:16;;;;;;;2.78;0.40;;;19.80;46.80;;;;;;5025960;28;20037;-46
2022/02/24 02:13:43;;;;;;;2.45;0.20;;;19.80;46.80;;;;;;5058000;28;20095;-61
2022/02/24 02:16:12;;;;;;;4.20;0.60;;;19.80;47.40;;;;;;5052139;28;20060;-61
2022/02/24 02:18:41;;;;;;;1.88;0.50;;;19.90;47.50;;;;;;5060019;28;20041;-62
2022/02/24 02:21:10;;;;;;;2.30;1.05;;;20.00;47.50;;;;;;5055175;28;20052;-62
2022/02/24 02:23:37;;;;;;;3.15;0.30;;;20.10;47.50;;;;;;5056281;28;20036;-61
2022/02/24 02:26:04;;;;;;;5.47;0.73;;;20.10;47.30;;;;;;5066463;28;20071;-70
2022/02/24 02:28:31;;;;;;;2.20;0.40;;;20.20;47.20;;;;;;5063211;28;20144;-56
2022/02/24 02:30:58;;;;;;;3.33;0.30;;;20.30;47.20;;;;;;5064545;28;20412;-58
2022/02/24 02:33:26;;;;;;;1.85;0.40;;;20.50;47.00;;;;;;5060035;28;20410;-55
2022/02/24 02:35:53;;;;;;;4.78;0.80;;;20.60;46.80;;;;;;5045924;28;20045;-59
2022/02/24 02:38:21;;;;;;;4.07;0.30;;;20.70;46.50;;;;;;5064312;28;20070;-57
2022/02/24 02:40:48;;;;;;;3.85;0.52;;;20.80;46.20;;;;;;5046137;28;20127;-58
2022/02/24 02:43:15;;;;;;;0.95;0.20;;;21.00;46.00;;;;;;5061976;28;20048;-54
2022/02/24 02:45:42;;;;;;;2.92;1.20;;;21.00;45.70;;;;;;5066394;28;20128;-58
2022/02/24 02:48:09;;;;;;;1.77;0.90;;;21.10;45.50;;;;;;5063765;28;20051;-58
2022/02/24 02:50:36;;;;;;;3.35;0.60;;;21.30;45.30;;;;;;5063939;28;20036;-54
2022/02/24 02:53:04;;;;;;;4.38;0.93;;;21.40;45.10;;;;;;5064784;28;20124;-57
2022/02/24 02:55:32;;;;;;;5.35;0.63;;;21.40;44.90;;;;;;5060157;28;20040;-54
2022/02/24 02:57:59;;;;;;;5.32;0.20;;;21.50;44.70;;;;;;5065046;28;20871;-56
2022/02/24 03:00:26;;;;;;;5.82;0.85;;;21.60;44.50;;;;;;5062591;28;20048;-54
2022/02/24 03:02:53;;;;;;;4.32;0.30;;;21.70;44.30;;;;;;5060225;28;20044;-56
2022/02/24 03:05:22;;;;;;;2.47;0.73;;;21.70;44.10;;;;;;5057870;28;20531;-55
2022/02/24 03:07:49;;;;;;;7.18;1.40;;;21.80;44.00;;;;;;5066092;28;20047;-54
2022/02/24 03:10:16;;;;;;;1.27;0.10;;;21.90;43.90;;;;;;5069396;28;20147;-55
2022/02/24 03:12:45;;;;;;;2.85;0.30;;;22.00;43.80;;;;;;5068808;28;20063;-56
2022/02/24 03:15:14;;;;;;;2.58;0.30;;;22.00;43.70;;;;;;5068291;28;20081;-56
2022/02/24 03:17:41;;;;;;;3.42;0.90;;;22.00;43.60;;;;;;5062230;28;20129;-54
2022/02/24 03:20:10;;;;;;;0.95;0.20;;;22.10;43.60;;;;;;5065468;28;20036;-56
2022/02/24 03:22:37;;;;;;;1.42;0.43;;;22.20;43.60;;;;;;5062140;28;20602;-55
2022/02/24 03:25:06;;;;;;;2.45;0.55;;;22.20;43.50;;;;;;5063981;28;20094;-57
2022/02/24 03:27:33;;;;;;;5.07;0.63;;;22.30;43.40;;;;;;5066707;28;20131;-53
2022/02/24 03:30:01;;;;;;;3.10;0.65;;;22.30;43.40;;;;;;5062854;28;20052;-56
2022/02/24 03:32:28;;;;;;;3.40;0.50;;;22.40;43.40;;;;;;5058575;28;20040;-55
2022/02/24 03:34:55;;;;;;;2.90;0.30;;;22.40;43.30;;;;;;5059392;28;20047;-54
2022/02/24 03:37:22;;;;;;;4.18;0.40;;;22.50;43.80;;;;;;5066445;28;20053;-55
2022/02/24 03:39:49;;;;;;;3.83;0.85;;;22.50;43.10;;;;;;5064240;28;20041;-56
2022/02/24 03:42:16;;;;;;;4.40;0.40;;;22.50;43.00;;;;;;5064286;28;20548;-58
2022/02/24 03:44:43;;;;;;;2.35;1.65;;;22.60;42.90;;;;;;5066228;28;20044;-55
2022/02/24 03:47:12;;;;;;;1.95;0.40;;;22.60;42.90;;;;;;5059795;28;20055;-57
2022/02/24 03:49:39;;;;;;;3.67;1.50;;;22.60;42.80;;;;;;5062714;28;20433;-57
2022/02/24 03:52:06;;;;;;;4.25;0.20;;;22.60;42.80;;;;;;5046090;28;20054;-56
2022/02/24 03:54:33;;;;;;;0.95;0.55;;;22.60;42.90;;;;;;5061501;28;20045;-57
2022/02/24 03:57:00;;;;;;;1.92;0.60;;;22.70;42.90;;;;;;5067050;28;20451;-55
2022/02/24 03:59:27;;;;;;;2.67;0.30;;;22.70;42.90;;;;;;5065210;28;20038;-57
2022/02/24 04:01:55;;;;;;;1.50;0.47;;;22.70;42.90;;;;;;5063331;28;20044;-57
2022/02/24 04:04:24;;;;;;;1.00;0.20;;;22.70;42.90;;;;;;5064498;28;20509;-53
2022/02/24 04:06:51;;;;;;;4.38;0.63;;;22.70;42.90;;;;;;5062422;28;20127;-55
2022/02/24 04:09:18;;;;;;;1.52;0.20;;;22.70;42.90;;;;;;5061836;28;20048;-55
2022/02/24 04:11:45;;;;;;;0.85;0.50;;;22.70;42.80;;;;;;5063611;28;20037;-53
2022/02/24 04:14:12;;;;;;;0.47;0.40;;;22.70;42.80;;;;;;5061769;28;20580;-58
2022/02/24 04:16:39;;;;;;;0.60;0.10;;;22.80;42.90;;;;;;5061152;28;20067;-56
2022/02/24 04:19:06;;;;;;;0.85;0.25;;;22.80;42.90;;;;;;5065194;28;20505;-55
2022/02/24 04:21:35;;;;;;;0.98;0.10;;;22.80;42.80;;;;;;5060599;28;20049;-57
2022/02/24 04:24:02;;;;;;;1.83;0.15;;;22.80;42.80;;;;;;5059641;28;20060;-53
2022/02/24 04:26:29;;;;;;;0.73;0.20;;;22.80;42.80;;;;;;5061025;28;20041;-57
2022/02/24 04:28:57;;;;;;;0.57;0.20;;;22.80;42.80;;;;;;5063047;28;20047;-57
2022/02/24 04:31:24;;;;;;;1.02;0.45;;;22.80;42.70;;;;;;5064224;28;20057;-57
2022/02/24 04:33:51;;;;;;;0.38;0.30;;;22.80;42.80;;;;;;5044205;28;20041;-56
2022/02/24 04:36:18;;;;;;;5.60;0.55;;;22.80;42.70;;;;;;5060107;28;20055;-53
2022/02/24 04:38:46;;;;;;;5.22;0.25;;;22.80;42.80;;;;;;5061258;28;20048;-54
2022/02/24 04:41:13;;;;;;;2.22;0.17;;;22.80;42.80;;;;;;5058952;28;20047;-52
2022/02/24 04:43:40;;;;;;;0.82;0.10;;;22.80;42.70;;;;;;5062041;28;20052;-54
2022/02/24 04:46:07;;;;;;;1.30;0.30;;;22.90;42.70;;;;;;5066786;28;20531;-55
2022/02/24 04:48:35;;;;;;;3.50;0.75;;;22.80;43.20;;;;;;5066550;28;20094;-56
2022/02/24 04:51:02;;;;;;;1.23;0.20;;;22.80;42.50;;;;;;5067959;28;20040;-57
2022/02/24 04:53:29;;;;;;;2.22;0.20;;;22.80;42.50;;;;;;5065758;28;20036;-54
2022/02/24 04:55:57;;;;;;;2.42;0.40;;;22.80;42.40;;;;;;5063014;28;20048;-57
2022/02/24 04:58:24;;;;;;;3.33;0.32;;;22.80;42.40;;;;;;5059467;28;20043;-54
2022/02/24 05:00:52;;;;;;;2.08;0.30;;;22.80;42.40;;;;;;5062557;28;20060;-56
2022/02/24 05:03:18;;;;;;;5.82;0.75;;;22.80;42.30;;;;;;5060766;28;20041;-59
2022/02/24 05:05:45;;;;;;;0.75;0.10;;;22.80;42.30;;;;;;5058505;28;20509;-54
2022/02/24 05:08:13;;;;;;;1.92;0.30;;;22.80;42.20;;;;;;5043828;28;20456;-57
2022/02/24 05:10:40;;;;;;;1.40;0.10;;;22.80;42.20;;;;;;5060444;28;20051;-57
2022/02/24 05:13:08;;;;;;;0.20;0.10;;;22.80;42.10;;;;;;5059449;28;20041;-57
2022/02/24 05:15:35;;;;;;;1.48;0.20;;;22.80;42.10;;;;;;5059656;28;20067;-57
2022/02/24 05:18:02;;;;;;;2.33;0.20;;;22.80;42.10;;;;;;5065438;28;20044;-57
2022/02/24 05:20:30;;;;;;;2.22;0.15;;;22.80;42.00;;;;;;5062060;28;20037;-57
2022/02/24 05:22:57;;;;;;;4.28;0.28;;;22.80;42.00;;;;;;5064276;28;20485;-55
2022/02/24 05:25:24;;;;;;;2.80;0.50;;;22.80;42.00;;;;;;5064333;28;20052;-53
2022/02/24 05:27:51;;;;;;;3.03;0.30;;;22.90;42.00;;;;;;5064534;28;20131;-54
2022/02/24 05:30:20;;;;;;;1.05;0.30;;;22.80;41.90;;;;;;5057882;28;20521;-57
2022/02/24 05:32:47;;;;;;;0.80;0.77;;;22.80;42.00;;;;;;5060864;28;20463;-56
2022/02/24 05:35:14;;;;;;;1.80;0.30;;;22.80;41.90;;;;;;5058692;28;20044;-56
2022/02/24 05:37:41;;;;;;;1.42;0.30;;;22.80;41.90;;;;;;5063094;28;20036;-55
2022/02/24 05:40:09;;;;;;;3.00;0.28;;;22.80;42.10;;;;;;5065402;28;20345;-55
2022/02/24 05:42:36;;;;;;;1.30;0.10;;;22.70;41.80;;;;;;5061144;28;20126;-51
2022/02/24 05:45:04;;;;;;;1.85;0.10;;;22.80;41.90;;;;;;5058716;28;20047;-50
2022/02/24 05:47:32;;;;;;;3.33;0.20;;;22.80;42.00;;;;;;5060315;28;20485;-54
2022/02/24 05:49:59;;;;;;;1.80;0.20;;;22.80;41.90;;;;;;5060516;28;20139;-58
2022/02/24 05:52:27;;;;;;;1.27;0.28;;;22.70;42.00;;;;;;5059833;28;20074;-55
2022/02/24 05:54:53;;;;;;;1.45;0.45;;;22.80;42.10;;;;;;5062743;28;20055;-55
2022/02/24 05:57:21;;;;;;;1.88;0.10;;;22.80;42.10;;;;;;5061400;28;20502;-56
2022/02/24 05:59:48;;;;;;;0.75;0.13;;;22.70;42.00;;;;;;5064310;28;20056;-55
2022/02/24 06:02:16;;;;;;;1.10;0.17;;;22.80;42.10;;;;;;5066649;28;20053;-58
2022/02/24 06:04:44;;;;;;;2.28;0.17;;;22.70;42.00;;;;;;5063456;28;20059;-58
2022/02/24 06:07:11;;;;;;;0.75;0.35;;;22.70;42.00;;;;;;5065570;28;20151;-54
2022/02/24 06:09:38;;;;;;;0.52;0.50;;;22.80;42.00;;;;;;5064141;28;20048;-56
2022/02/24 06:12:06;;;;;;;0.32;0.10;;;22.70;42.10;;;;;;5061748;28;20041;-56
2022/02/24 06:14:33;;;;;;;1.08;0.20;;;22.80;42.10;;;;;;5062472;28;20045;-54
2022/02/24 06:17:00;;;;;;;2.88;0.30;;;22.80;42.10;;;;;;5064651;28;20043;-58
2022/02/24 06:19:28;;;;;;;2.58;0.13;;;22.70;42.00;;;;;;5048972;28;20137;-57
2022/02/24 06:21:57;;;;;;;0.40;0.40;;;22.70;42.10;;;;;;5067688;28;20087;-56
2022/02/24 06:24:24;;;;;;;1.65;0.10;;;22.70;42.10;;;;;;5062219;28;20049;-58
2022/02/24 06:26:51;;;;;;;1.40;0.43;;;22.70;42.00;;;;;;5064203;28;20036;-57
2022/02/24 06:29:18;;;;;;;5.25;0.20;;;22.70;42.00;;;;;;5061529;28;20131;-55
2022/02/24 06:31:46;;;;;;;0.47;0.20;;;22.70;42.00;;;;;;5065274;28;20085;-57
2022/02/24 06:34:13;;;;;;;1.95;0.40;;;22.70;42.00;;;;;;5062377;28;20059;-57
2022/02/24 06:36:40;;;;;;;1.52;0.20;;;22.70;42.00;;;;;;5065462;28;20123;-57
2022/02/24 06:39:09;;;;;;;1.55;0.20;;;22.70;42.00;;;;;;5066856;28;20137;-59
2022/02/24 06:41:36;;;;;;;2.47;0.20;;;22.70;42.60;;;;;;5068034;28;20511;-56
2022/02/24 06:44:04;;;;;;;1.77;0.20;;;22.70;42.00;;;;;;5062756;28;20040;-57
2022/02/24 06:46:32;;;;;;;0.95;0.10;;;22.70;42.00;;;;;;5061444;28;20045;-59
2022/02/24 06:49:00;;;;;;;2.28;0.45;;;22.70;42.10;;;;;;5066149;28;20394;-59
2022/02/24 06:51:27;;;;;;;2.45;0.30;;;22.70;42.20;;;;;;5068364;28;20074;-56
2022/02/24 06:53:54;;;;;;;1.17;0.10;;;22.70;42.20;;;;;;5065596;28;20150;-59
2022/02/24 06:56:24;;;;;;;1.15;0.25;;;22.70;42.10;;;;;;5057762;28;20409;-57
2022/02/24 06:58:51;;;;;;;1.70;0.10;;;22.70;42.10;;;;;;5063231;28;20049;-55
2022/02/24 07:01:18;;;;;;;1.00;0.20;;;22.70;42.10;;;;;;5065128;28;20048;-58
2022/02/24 07:03:45;;;;;;;0.73;0.20;;;22.70;42.10;;;;;;5062931;28;20090;-57
2022/02/24 07:06:13;;;;;;;0.63;0.10;;;22.70;42.00;;;;;;5059601;28;20436;-57
2022/02/24 07:08:40;;;;;;;0.40;0.30;;;22.70;42.00;;;;;;5070890;28;20049;-57
2022/02/24 07:11:07;;;;;;;2.05;0.50;;;22.70;41.90;;;;;;5061986;28;20044;-58
2022/02/24 07:13:36;;;;;;;2.03;0.60;;;22.70;41.90;;;;;;5064656;28;20061;-59
2022/02/24 07:16:03;;;;;;;2.17;0.20;;;22.70;42.00;;;;;;5063772;28;20063;-59
2022/02/24 07:18:30;;;;;;;2.47;0.45;;;22.60;41.90;;;;;;5059897;28;20048;-57
2022/02/24 07:20:58;;;;;;;0.73;0.10;;;22.60;41.80;;;;;;5060929;28;20037;-59
2022/02/24 07:23:25;;;;;;;1.35;0.15;;;22.70;41.80;;;;;;5063925;28;20072;-58
2022/02/24 07:25:55;;;;;;;1.85;0.10;;;22.70;41.80;;;;;;5066262;28;20048;-53
2022/02/24 07:28:23;;;;;;;1.77;0.43;;;22.70;41.80;;;;;;5066499;28;20060;-57
2022/02/24 07:30:51;;;;;;;1.30;0.10;;;22.70;41.70;;;;;;5045980;28;20045;-56
2022/02/24 07:33:18;;;;;;;2.80;0.10;;;22.70;41.60;;;;;;5064715;28;20048;-54
2022/02/24 07:35:46;;;;;;;3.03;0.10;;;22.70;41.60;;;;;;5063408;28;20115;-58
2022/02/24 07:38:13;;;;;;;2.38;0.30;;;22.70;41.60;;;;;;5061955;28;20048;-57
2022/02/24 07:40:41;;;;;;;1.20;0.20;;;22.70;41.60;;;;;;5061136;28;20045;-55
2022/02/24 07:43:08;;;;;;;1.05;0.10;;;22.70;41.60;;;;;;5067851;28;20048;-54
2022/02/24 07:45:36;;;;;;;0.77;0.10;;;22.70;41.60;;;;;;5067905;28;20105;-54
2022/02/24 07:48:05;;;;;;;0.80;0.20;;;22.70;41.60;;;;;;5066633;28;20047;-57
2022/02/24 07:50:32;;;;;;;0.40;0.10;;;22.70;41.40;;;;;;5061910;28;20032;-57
2022/02/24 07:53:01;;;;;;;0.85;0.43;;;22.70;41.40;;;;;;5044164;28;20070;-56
2022/02/24 07:55:29;;;;;;;2.40;0.20;;;22.70;41.50;;;;;;5066356;28;20068;-52
2022/02/24 07:57:56;;;;;;;1.70;0.17;;;22.70;41.50;;;;;;5063450;28;20122;-56
2022/02/24 08:00:24;;;;;;;7.32;1.17;;;22.80;41.60;;;;;;5062241;28;20040;-56
2022/02/24 08:02:51;;;;;;;2.60;0.20;;;22.80;41.60;;;;;;5064635;28;20512;-59
2022/02/24 08:05:20;;;;;;;2.50;0.40;;;22.70;41.60;;;;;;5067410;28;20429;-58
2022/02/24 08:07:48;;;;;;;3.80;0.38;;;22.70;41.60;;;;;;5059736;28;20037;-55
2022/02/24 08:10:15;;;;;;;2.30;0.38;;;22.80;41.50;;;;;;5062222;28;20044;-56
2022/02/24 08:12:47;;;;;;;2.30;0.20;;;22.80;41.60;;;;;;5047741;28;20815;-52
2022/02/24 08:15:16;;;;;;;4.05;0.20;;;22.80;41.50;;;;;;5057649;28;20040;-57
2022/02/24 08:17:44;;;;;;;1.63;0.28;;;22.80;41.30;;;;;;5062021;28;20040;-57
2022/02/24 08:20:13;;;;;;;3.50;0.20;;;22.80;41.40;;;;;;5065103;28;20036;-56
2022/02/24 08:22:44;;;;;;;0.95;0.10;;;22.90;41.30;;;;;;5059918;28;20568;-58
2022/02/24 08:25:14;;;;;;;1.30;0.13;;;22.90;41.20;;;;;;5062535;28;20157;-56
2022/02/24 08:27:44;;;;;;;0.70;0.10;;;22.90;41.60;;;;;;5061423;28;20052;-56
2022/02/24 08:30:13;;;;;;;1.85;0.20;;;22.90;41.50;;;;;;5060986;28;20041;-54
2022/02/24 08:32:41;;;;;;;1.95;0.80;;;22.90;41.60;;;;;;5058488;28;20055;-59
2022/02/24 08:35:11;;;;;;;3.13;0.50;;;22.90;41.50;;;;;;5063098;28;20048;-57
2022/02/24 08:37:38;;;;;;;5.25;1.65;;;22.90;41.30;;;;;;5061832;28;20033;-58
2022/02/24 08:40:08;;;;;;;1.17;0.10;;;22.90;41.20;;;;;;5064934;28;20046;-54
2022/02/24 08:42:35;;;;;;;1.88;0.20;;;23.00;41.30;;;;;;5060254;28;20054;-59
2022/02/24 08:45:04;;;;;;;3.97;0.13;;;23.00;41.30;;;;;;5060265;28;20056;-54
2022/02/24 08:47:31;;;;;;;3.00;0.30;;;23.00;41.30;;;;;;5043847;28;20051;-61
2022/02/24 08:49:58;;;;;;;2.05;0.20;;;23.00;41.60;;;;;;5061002;28;20120;-54
2022/02/24 08:52:26;;;;;;;3.30;0.55;;;23.10;41.70;;;;;;5061387;28;20186;-72
2022/02/24 08:54:54;;;;;;;5.80;0.20;;;23.10;41.70;;;;;;5062751;28;20036;-59
2022/02/24 08:57:22;;;;;;;0.80;0.20;;;23.10;41.40;;;;;;5059693;28;20041;-57
2022/02/24 08:59:51;;;;;;;3.38;0.30;;;23.10;41.40;;;;;;5063098;28;20059;-56
2022/02/24 09:02:18;;;;;;;6.82;0.20;;;23.10;42.20;;;;;;5058360;28;20044;-63
2022/02/24 09:04:46;;;;;;;2.92;0.95;;;23.10;41.70;;;;;;5061600;28;20032;-68
2022/02/24 09:07:13;;;;;;;2.83;0.60;;;23.10;41.70;;;;;;5069568;28;20082;-62
2022/02/24 09:09:42;;;;;;;2.35;0.50;;;23.10;41.60;;;;;;5063367;28;20068;-62
2022/02/24 09:12:10;;;;;;;2.40;0.63;;;23.20;41.50;;;;;;5061530;28;20123;-66
2022/02/24 09:14:39;;;;;;;2.53;0.20;;;23.30;41.30;;;;;;5060797;28;20036;-64
2022/02/24 09:17:06;;;;;;;4.00;0.28;;;23.30;41.10;;;;;;5060283;28;21034;-63
2022/02/24 09:19:33;;;;;;;2.85;0.20;;;23.40;41.00;;;;;;5057629;28;20086;-67
2022/02/24 09:22:00;;;;;;;2.50;0.30;;;23.40;40.80;;;;;;5067680;28;20068;-68
2022/02/24 09:24:28;;;;;;;2.15;0.20;;;23.50;40.70;;;;;;5063184;28;20040;-62
2022/02/24 09:26:55;;;;;;;1.85;0.10;;;23.50;40.60;;;;;;5064949;28;20048;-62
2022/02/24 09:29:22;;;;;;;1.25;0.65;;;23.60;40.50;;;;;;5061092;28;20166;-62
2022/02/24 09:31:51;;;;;;;2.40;0.50;;;23.60;40.40;;;;;;5060038;28;20040;-61
2022/02/24 09:34:18;;;;;;;1.15;0.70;;;23.70;40.40;;;;;;5058896;28;20045;-65
2022/02/24 09:36:45;;;;;;;1.13;0.25;;;23.70;40.30;;;;;;5065100;28;20045;-62
2022/02/24 09:39:13;;;;;;;2.90;0.17;;;23.80;40.20;;;;;;5065071;28;20033;-63
2022/02/24 09:41:40;;;;;;;2.55;0.20;;;23.90;40.00;;;;;;5063852;28;20572;-62
2022/02/24 09:44:08;;;;;;;1.20;0.20;;;23.90;40.20;;;;;;5061259;28;20044;-64
2022/02/24 09:46:36;;;;;;;0.85;0.35;;;24.00;40.20;;;;;;5063466;28;20062;-62
2022/02/24 09:49:05;;;;;;;1.85;0.22;;;24.10;40.00;;;;;;5069580;28;20505;-68
2022/02/24 09:51:32;;;;;;;3.80;0.28;;;24.20;40.00;;;;;;5061845;28;20748;-64
2022/02/24 09:54:01;;;;;;;3.70;0.20;;;24.20;39.70;;;;;;5065204;28;20041;-65
2022/02/24 09:56:29;;;;;;;1.25;0.28;;;24.30;39.40;;;;;;5049808;28;20121;-69
2022/02/24 09:58:58;;;;;;;1.17;0.10;;;24.30;39.20;;;;;;5065854;28;20501;-61
2022/02/24 10:01:25;;;;;;;0.20;0.10;;;24.40;39.20;;;;;;5072323;28;20059;-63
2022/02/24 10:03:57;;;;;;;1.40;0.10;;;24.50;39.10;;;;;;5072547;28;20067;-64
2022/02/24 10:06:37;;;;;;;2.63;0.40;;;24.60;38.80;;;;;;5062956;28;20593;-65
2022/02/24 10:09:07;;;;;;;3.42;0.10;;;24.60;38.50;;;;;;5065717;28;20881;-65
2022/02/24 10:11:35;;;;;;;2.10;0.13;;;24.60;38.30;;;;;;5062186;28;20040;-58
2022/02/24 10:14:08;;;;;;;1.77;0.10;;;24.70;38.20;;;;;;5042188;28;20041;-62
2022/02/24 10:16:52;;;;;;;2.70;0.22;;;24.70;38.00;;;;;;5066322;28;20045;-63
2022/02/24 10:19:26;;;;;;;3.92;0.22;;;24.80;38.20;;;;;;5065102;28;20045;-58
2022/02/24 10:22:18;;;;;;;2.63;0.35;;;24.80;38.10;;;;;;5066161;28;20040;-61
2022/02/24 10:24:55;;;;;;;1.05;0.10;;;24.90;38.00;;;;;;5064105;28;20124;-49
2022/02/24 10:27:25;;;;;;;5.05;0.63;;;24.90;38.20;;;;;;5062603;28;20036;-63
2022/02/24 10:30:00;;;;;;;1.52;0.22;;;24.90;38.00;;;;;;5062839;28;20036;-58
2022/02/24 10:32:33;;;;;;;3.83;0.30;;;25.00;37.80;;;;;;5065213;28;20110;-62
2022/02/24 10:35:23;;;;;;;2.38;0.20;;;25.10;37.70;;;;;;5063252;28;20086;-62
2022/02/24 10:38:01;;;;;;;2.90;0.10;;;25.10;37.60;;;;;;5062422;28;20044;-60
2022/02/24 10:40:30;;;;;;;3.17;0.20;;;25.20;37.60;;;;;;5063557;28;20094;-62
2022/02/24 10:43:13;;;;;;;5.15;0.38;;;25.20;37.50;;;;;;5067459;28;20056;-55
2022/02/24 10:45:43;;;;;;;2.08;0.10;;;25.30;37.50;;;;;;5070515;28;20047;-66
2022/02/24 10:48:10;;;;;;;4.10;0.32;;;25.30;37.30;;;;;;5064534;28;20656;-69
2022/02/24 10:50:58;;;;;;;3.90;0.40;;;25.30;37.20;;;;;;5062428;28;20074;-64
2022/02/24 10:53:29;;;;;;;5.10;0.30;;;25.40;37.10;;;;;;5061692;28;20062;-56
2022/02/24 10:56:05;;;;;;;7.22;0.28;;;25.30;37.30;;;;;;5065875;28;20047;-61
2022/02/24 10:58:34;;;;;;;6.60;0.32;;;25.30;37.50;;;;;;5065091;28;20037;-67
2022/02/24 11:01:05;;;;;;;4.47;0.38;;;25.30;37.30;;;;;;5066332;28;20068;-69
2022/02/24 11:03:33;;;;;;;5.47;0.32;;;25.30;37.40;;;;;;5068270;28;20609;-65
2022/02/24 11:06:03;;;;;;;4.35;0.10;;;25.30;37.50;;;;;;5062108;28;20055;-66
2022/02/24 11:08:32;;;;;;;11.77;0.80;;;25.30;37.90;;;;;;5063339;28;20044;-56
2022/02/24 11:11:01;;;;;;;28.33;1.23;;;25.20;38.00;;;;;;5067279;28;20062;-56
2022/02/24 11:13:29;;;;;;;21.25;1.60;;;25.20;38.50;;;;;;5062893;28;20731;-56
2022/02/24 11:15:57;;;;;;;9.48;1.23;;;25.20;38.00;;;;;;5067780;28;20040;-56
2022/02/24 11:18:24;;;;;;;20.83;0.30;;;25.30;38.00;;;;;;5066299;28;20488;-58
2022/02/24 11:20:52;;;;;;;12.68;0.50;;;25.30;38.00;;;;;;5060433;28;20036;-61
2022/02/24 11:23:22;;;;;;;13.63;1.70;;;25.30;38.00;;;;;;5064012;28;21028;-58
2022/02/24 11:25:59;;;;;;;8.82;0.50;;;25.30;38.10;;;;;;5067153;28;20119;-59
2022/02/24 11:28:32;;;;;;;12.95;0.47;;;25.30;38.10;;;;;;5066113;28;20137;-58
2022/02/24 11:31:06;;;;;;;8.15;0.85;;;25.30;38.00;;;;;;5066855;28;20051;-59
2022/02/24 11:33:34;;;;;;;11.05;0.55;;;25.30;37.90;;;;;;5061239;28;20837;-56
2022/02/24 11:36:10;;;;;;;9.18;0.70;;;25.40;38.60;;;;;;5066897;28;20045;-57
2022/02/24 11:38:39;;;;;;;9.07;0.65;;;25.40;37.90;;;;;;5048179;28;20385;-58
2022/02/24 11:41:09;;;;;;;9.90;1.48;;;25.40;37.90;;;;;;5060730;28;20049;-61
2022/02/24 11:43:37;;;;;;;9.48;0.65;;;25.50;37.90;;;;;;5040144;28;20052;-59
2022/02/24 11:46:06;;;;;;;4.40;0.30;;;25.50;37.90;;;;;;5065060;28;20459;-58
2022/02/24 11:48:36;;;;;;;7.90;0.43;;;25.50;38.00;;;;;;5063083;28;20131;-58
2022/02/24 11:51:05;;;;;;;7.80;1.58;;;25.60;37.90;;;;;;5061460;28;20068;-58
2022/02/24 11:53:35;;;;;;;4.05;1.25;;;25.60;37.90;;;;;;5064512;28;20052;-60
2022/02/24 11:56:04;;;;;;;8.80;0.85;;;25.60;37.70;;;;;;5061820;28;20500;-57
2022/02/24 11:58:50;;;;;;;6.07;0.82;;;25.60;37.60;;;;;;5067225;28;21290;-61
2022/02/24 12:01:27;;;;;;;4.53;0.22;;;25.70;37.50;;;;;;5045431;28;20514;-60
2022/02/24 12:03:59;;;;;;;3.42;0.60;;;25.60;37.30;;;;;;5061899;28;20044;-61
2022/02/24 12:06:56;;;;;;;7.57;0.70;;;25.60;37.30;;;;;;5060579;28;20106;-61
2022/02/24 12:09:31;;;;;;;6.85;0.82;;;25.60;37.10;;;;;;4961604;28;20050;-62
2022/02/24 12:12:01;;;;;;;5.88;0.30;;;25.60;37.20;;;;;;4951804;28;20042;-60
2022/02/24 12:14:49;;;;;;;5.80;0.75;;;25.60;37.30;;;;;;4959183;28;20051;-62
2022/02/24 12:17:22;;;;;;;4.95;0.73;;;25.70;37.20;;;;;;4959337;28;20803;-59
2022/02/24 12:19:53;;;;;;;7.28;0.40;;;25.60;37.10;;;;;;4964668;28;20164;-60
2022/02/24 12:22:37;;;;;;;6.10;0.98;;;25.70;37.20;;;;;;4963291;28;20595;-65
2022/02/24 12:25:10;;;;;;;15.73;1.55;;;25.70;37.00;;;;;;4945342;28;20069;-64
2022/02/24 12:27:40;;;;;;;5.75;1.52;;;25.70;37.40;;;;;;4964715;28;20039;-64
2022/02/24 12:30:27;;;;;;;15.77;1.23;;;25.70;37.50;;;;;;4960426;28;20549;-64
2022/02/24 12:32:58;;;;;;;21.25;2.20;;;25.70;37.50;;;;;;4957721;28;20133;-63
2022/02/24 12:35:28;;;;;;;16.17;1.23;;;25.70;37.70;;;;;;4958505;28;20084;-62
2022/02/24 12:37:55;;;;;;;14.10;0.90;;;25.70;37.50;;;;;;4964178;28;20620;-64
2022/02/24 12:40:30;;;;;;;11.68;2.60;;;25.80;37.60;;;;;;4970368;28;20492;-70
2022/02/24 12:42:59;;;;;;;19.70;1.20;;;25.80;37.60;;;;;;4963465;28;20117;-68
2022/02/24 12:45:29;;;;;;;14.90;2.45;;;25.90;37.60;;;;;;5023058;28;20478;-69
2022/02/24 12:47:57;;;;;;;20.23;1.75;;;25.90;37.60;;;;;;5064125;28;20119;-71
2022/02/24 12:50:30;;;;;;;26.30;1.45;;;25.90;37.80;;;;;;5064705;28;20044;-68
2022/02/24 12:53:06;;;;;;;28.92;2.47;;;26.00;38.00;;;;;;5061667;28;20048;-60